Time;durP1;ratioP1;P1;durP2;ratioP2;P2;SDS_P1;SDS_P2;PMS_P1;PMS_P2;Temp;Humidity;BMP_temperature;BMP_pressure;BME280_temperature;BME280_humidity;BME280_pressure;Samples;Min_cycle;Max_cycle;Signal;HPM_P1;HPM_P2
2022/12/23 00:00:12;;;;;;;18.37;6.60;;;;;;;;;;6196136;23;20171;-87
2022/12/23 00:06:49;;;;;;;45.33;15.57;;;;;;;;;;6199138;23;20167;-88
2022/12/23 00:09:55;;;;;;;23.30;8.47;;;;;;;;;;6198192;23;20156;-88
2022/12/23 00:16:29;;;;;;;13.97;5.77;;;;;;;;;;6139223;23;20175;-88
2022/12/23 00:19:34;;;;;;;15.33;5.63;;;;;;;;;;6197287;23;20470;-89
2022/12/23 00:26:02;;;;;;;11.53;5.27;;;;;;;;;;6197542;23;20171;-88
2022/12/23 00:29:08;;;;;;;14.13;6.00;;;;;;;;;;6178674;23;20191;-88
2022/12/23 00:32:13;;;;;;;11.40;5.73;;;;;;;;;;6198319;23;20159;-88
2022/12/23 00:35:18;;;;;;;10.73;5.40;;;;;;;;;;6197394;23;20541;-88
2022/12/23 00:45:15;;;;;;;11.53;4.90;;;;;;;;;;6197390;23;20208;-90
2022/12/23 00:51:42;;;;;;;13.30;5.73;;;;;;;;;;6164362;23;20188;-88
2022/12/23 00:54:47;;;;;;;15.37;6.30;;;;;;;;;;6198065;23;20480;-89
2022/12/23 00:57:53;;;;;;;15.37;5.83;;;;;;;;;;6196515;23;20259;-87
2022/12/23 01:07:45;;;;;;;10.03;4.90;;;;;;;;;;6198076;23;20211;-88
2022/12/23 01:10:50;;;;;;;11.33;4.73;;;;;;;;;;6194344;23;20239;-89
2022/12/23 01:13:55;;;;;;;9.03;4.53;;;;;;;;;;6179997;23;20186;-88
2022/12/23 01:17:02;;;;;;;11.60;4.77;;;;;;;;;;6197537;23;20299;-89
2022/12/23 01:20:08;;;;;;;11.10;5.20;;;;;;;;;;6196954;23;20159;-90
2022/12/23 01:23:13;;;;;;;11.27;5.03;;;;;;;;;;6197652;23;20170;-89
2022/12/23 01:26:18;;;;;;;9.60;4.97;;;;;;;;;;6179372;23;20164;-89
2022/12/23 01:29:23;;;;;;;10.70;4.47;;;;;;;;;;6198248;23;20176;-90
2022/12/23 01:32:30;;;;;;;13.10;5.33;;;;;;;;;;6198626;23;20167;-88
2022/12/23 01:35:35;;;;;;;10.43;5.17;;;;;;;;;;6180534;23;20164;-88
2022/12/23 01:38:40;;;;;;;10.27;5.27;;;;;;;;;;6198493;23;20171;-90
2022/12/23 01:45:14;;;;;;;12.90;5.40;;;;;;;;;;6197888;23;20221;-89
2022/12/23 01:48:21;;;;;;;10.77;5.07;;;;;;;;;;6180647;23;20195;-89
2022/12/23 01:51:28;;;;;;;7.77;4.50;;;;;;;;;;6198959;23;20245;-89
2022/12/23 01:54:33;;;;;;;9.83;5.33;;;;;;;;;;6198404;23;20164;-89
2022/12/23 01:57:39;;;;;;;10.23;4.43;;;;;;;;;;6196330;23;20184;-88
2022/12/23 02:04:12;;;;;;;10.03;5.00;;;;;;;;;;6196533;23;20168;-89
2022/12/23 02:10:46;;;;;;;7.63;4.27;;;;;;;;;;6195366;23;20196;-86
2022/12/23 02:17:17;;;;;;;6.63;3.40;;;;;;;;;;6162899;23;20192;-88
2022/12/23 02:20:41;;;;;;;6.60;3.33;;;;;;;;;;6198517;23;20626;-89
2022/12/23 02:24:01;;;;;;;7.73;4.40;;;;;;;;;;6180077;23;20168;-88
2022/12/23 02:27:11;;;;;;;7.03;3.70;;;;;;;;;;6179394;23;20271;-88
2022/12/23 02:30:29;;;;;;;10.90;4.47;;;;;;;;;;6197037;23;20176;-86
2022/12/23 02:33:41;;;;;;;8.43;4.67;;;;;;;;;;6195240;23;20169;-87
2022/12/23 02:36:51;;;;;;;8.60;3.20;;;;;;;;;;6195565;23;20168;-87
2022/12/23 02:39:59;;;;;;;8.10;4.90;;;;;;;;;;6196076;23;20176;-90
2022/12/23 02:43:06;;;;;;;9.17;4.67;;;;;;;;;;6194321;23;20196;-89
2022/12/23 02:46:16;;;;;;;7.57;3.30;;;;;;;;;;6195480;23;20633;-87
2022/12/23 02:49:24;;;;;;;9.50;4.87;;;;;;;;;;6195208;23;20310;-89
2022/12/23 02:52:30;;;;;;;7.97;3.63;;;;;;;;;;6194919;23;20244;-89
2022/12/23 02:55:37;;;;;;;7.23;3.23;;;;;;;;;;6193967;23;20168;-89
2022/12/23 02:58:44;;;;;;;10.07;4.40;;;;;;;;;;6193383;23;20210;-88
2022/12/23 03:01:53;;;;;;;7.00;4.10;;;;;;;;;;6194265;23;20255;-87
2022/12/23 03:04:57;;;;;;;8.60;4.10;;;;;;;;;;6195384;23;20167;-89
2022/12/23 03:08:04;;;;;;;6.63;3.77;;;;;;;;;;6195085;23;20288;-87
2022/12/23 03:11:11;;;;;;;6.70;3.60;;;;;;;;;;6176826;23;20179;-87
2022/12/23 03:14:25;;;;;;;8.43;3.50;;;;;;;;;;6193422;23;20250;-87
2022/12/23 03:17:43;;;;;;;5.20;3.00;;;;;;;;;;6195287;23;20168;-87
2022/12/23 03:20:52;;;;;;;5.80;3.07;;;;;;;;;;6194364;23;20180;-87
2022/12/23 03:24:01;;;;;;;10.60;3.97;;;;;;;;;;6194680;23;20660;-88
2022/12/23 03:27:09;;;;;;;6.17;3.50;;;;;;;;;;6193092;23;20219;-89
2022/12/23 03:30:15;;;;;;;8.50;4.23;;;;;;;;;;6193877;23;20546;-88
2022/12/23 03:33:24;;;;;;;5.97;3.80;;;;;;;;;;6193870;23;20687;-89
2022/12/23 03:36:32;;;;;;;7.43;3.53;;;;;;;;;;6193370;23;20247;-89
2022/12/23 03:39:39;;;;;;;5.80;3.33;;;;;;;;;;6194512;23;20168;-89
2022/12/23 03:42:46;;;;;;;5.70;3.20;;;;;;;;;;6193975;23;20168;-88
2022/12/23 03:45:54;;;;;;;7.73;3.97;;;;;;;;;;6196004;23;20172;-89
2022/12/23 03:49:03;;;;;;;6.87;4.27;;;;;;;;;;6194700;23;20199;-89
2022/12/23 03:52:12;;;;;;;6.23;3.07;;;;;;;;;;6194740;23;20171;-89
2022/12/23 03:55:19;;;;;;;5.90;2.80;;;;;;;;;;6194782;23;20172;-89
2022/12/23 03:58:29;;;;;;;7.77;3.10;;;;;;;;;;6193776;23;20168;-87
2022/12/23 04:01:39;;;;;;;6.57;3.60;;;;;;;;;;6194265;23;20168;-87
2022/12/23 04:04:51;;;;;;;8.30;3.53;;;;;;;;;;6193261;23;20718;-91
2022/12/23 04:08:00;;;;;;;5.63;2.73;;;;;;;;;;6194146;23;20261;-87
2022/12/23 04:11:05;;;;;;;4.70;2.80;;;;;;;;;;6192661;23;20172;-89
2022/12/23 04:14:11;;;;;;;5.93;2.83;;;;;;;;;;6192247;23;20167;-90
2022/12/23 04:17:16;;;;;;;6.43;2.50;;;;;;;;;;6193062;23;20167;-88
2022/12/23 04:20:22;;;;;;;2.60;1.90;;;;;;;;;;6193426;23;20172;-87
2022/12/23 04:23:27;;;;;;;5.37;3.30;;;;;;;;;;6191588;23;20263;-87
2022/12/23 04:26:32;;;;;;;6.53;3.60;;;;;;;;;;6193440;23;20291;-87
2022/12/23 04:29:38;;;;;;;5.37;2.73;;;;;;;;;;6176462;23;20199;-86
2022/12/23 04:32:43;;;;;;;7.33;3.70;;;;;;;;;;6195153;23;20675;-87
2022/12/23 04:35:49;;;;;;;4.27;2.70;;;;;;;;;;6194739;23;20163;-87
2022/12/23 04:38:55;;;;;;;6.07;2.40;;;;;;;;;;6177191;23;20188;-89
2022/12/23 04:41:59;;;;;;;4.33;2.60;;;;;;;;;;6194489;23;20243;-89
2022/12/23 04:45:05;;;;;;;5.13;3.10;;;;;;;;;;6193115;23;20235;-88
2022/12/23 04:48:10;;;;;;;8.17;3.83;;;;;;;;;;6195728;23;20155;-90
2022/12/23 04:51:16;;;;;;;4.57;2.90;;;;;;;;;;6194984;23;20164;-88
2022/12/23 04:54:21;;;;;;;5.63;3.10;;;;;;;;;;6194108;23;20192;-87
2022/12/23 04:57:26;;;;;;;8.13;4.63;;;;;;;;;;6195895;23;20242;-90
2022/12/23 05:00:39;;;;;;;7.27;3.70;;;;;;;;;;6194780;23;20215;-86
2022/12/23 05:03:45;;;;;;;5.40;3.10;;;;;;;;;;6195723;23;20151;-89
2022/12/23 05:06:51;;;;;;;4.50;2.40;;;;;;;;;;6197167;23;20163;-90
2022/12/23 05:10:00;;;;;;;7.10;3.30;;;;;;;;;;6197639;23;20191;-89
2022/12/23 05:13:05;;;;;;;6.60;2.67;;;;;;;;;;6181652;23;20147;-87
2022/12/23 05:16:10;;;;;;;4.63;2.40;;;;;;;;;;6199035;23;20402;-88
2022/12/23 05:19:16;;;;;;;7.47;3.80;;;;;;;;;;6199512;23;20195;-87
2022/12/23 05:22:22;;;;;;;5.77;3.07;;;;;;;;;;6200716;23;20191;-86
2022/12/23 05:25:31;;;;;;;5.27;2.77;;;;;;;;;;6200703;23;20164;-86
2022/12/23 05:28:36;;;;;;;6.00;2.93;;;;;;;;;;6200408;23;20176;-88
2022/12/23 05:31:42;;;;;;;6.47;3.80;;;;;;;;;;6200776;23;20238;-88
2022/12/23 05:34:47;;;;;;;5.20;2.73;;;;;;;;;;6198398;23;20152;-90
2022/12/23 05:37:56;;;;;;;6.97;3.30;;;;;;;;;;6182651;23;20171;-89
2022/12/23 05:41:01;;;;;;;5.37;2.70;;;;;;;;;;6198657;23;20168;-88
2022/12/23 05:44:06;;;;;;;4.33;2.47;;;;;;;;;;6200018;23;20231;-91
2022/12/23 05:47:11;;;;;;;3.00;2.20;;;;;;;;;;6181077;23;20167;-87
2022/12/23 05:50:16;;;;;;;5.63;3.23;;;;;;;;;;6197492;23;20195;-87
2022/12/23 05:53:24;;;;;;;4.63;3.10;;;;;;;;;;6197859;23;20216;-91
2022/12/23 05:56:29;;;;;;;5.93;3.20;;;;;;;;;;6198828;23;20176;-89
2022/12/23 05:59:34;;;;;;;3.87;2.17;;;;;;;;;;6197956;23;20237;-89
2022/12/23 06:02:39;;;;;;;5.20;3.03;;;;;;;;;;6180097;23;20234;-89
2022/12/23 06:05:44;;;;;;;17.83;3.90;;;;;;;;;;6199333;23;20722;-88
2022/12/23 06:08:51;;;;;;;3.53;2.20;;;;;;;;;;6198811;23;20190;-89
2022/12/23 06:11:55;;;;;;;9.70;2.70;;;;;;;;;;6199241;23;20147;-89
2022/12/23 06:15:01;;;;;;;29.00;3.97;;;;;;;;;;6199692;23;20163;-91
2022/12/23 06:18:06;;;;;;;12.93;2.67;;;;;;;;;;6199224;23;20200;-89
2022/12/23 06:21:11;;;;;;;9.50;3.33;;;;;;;;;;6198794;23;20168;-89
2022/12/23 06:24:17;;;;;;;13.93;2.87;;;;;;;;;;6199946;23;20171;-88
2022/12/23 06:27:24;;;;;;;11.03;4.23;;;;;;;;;;6182632;23;20172;-86
2022/12/23 06:30:29;;;;;;;16.20;4.70;;;;;;;;;;6202921;23;20219;-87
2022/12/23 06:33:35;;;;;;;8.87;3.73;;;;;;;;;;6199674;23;20152;-88
2022/12/23 06:36:40;;;;;;;6.53;3.80;;;;;;;;;;6202347;23;20211;-90
2022/12/23 06:39:48;;;;;;;5.97;2.80;;;;;;;;;;6199968;23;20163;-91
2022/12/23 06:42:53;;;;;;;5.17;2.57;;;;;;;;;;6181359;23;20245;-88
2022/12/23 06:45:58;;;;;;;5.83;2.87;;;;;;;;;;6198264;23;20195;-90
2022/12/23 06:49:02;;;;;;;5.10;2.60;;;;;;;;;;6198853;23;20163;-86
2022/12/23 06:52:07;;;;;;;9.03;2.87;;;;;;;;;;6199262;23;20239;-89
2022/12/23 06:55:14;;;;;;;3.23;1.93;;;;;;;;;;6198055;23;20187;-87
2022/12/23 06:58:19;;;;;;;5.13;2.40;;;;;;;;;;6198957;23;20167;-88
2022/12/23 07:01:25;;;;;;;10.37;3.90;;;;;;;;;;6181203;23;20172;-90
2022/12/23 07:04:30;;;;;;;7.03;2.77;;;;;;;;;;6199343;23;20168;-90
2022/12/23 07:07:35;;;;;;;4.03;1.80;;;;;;;;;;6181298;23;20623;-86
2022/12/23 07:10:41;;;;;;;6.47;2.90;;;;;;;;;;6198693;23;20194;-87
2022/12/23 07:13:46;;;;;;;5.43;3.13;;;;;;;;;;6182252;23;20156;-90
2022/12/23 07:16:52;;;;;;;3.53;1.63;;;;;;;;;;6199568;23;20168;-86
2022/12/23 07:20:01;;;;;;;3.43;2.03;;;;;;;;;;6199977;23;20481;-89
2022/12/23 07:23:06;;;;;;;3.97;2.07;;;;;;;;;;6199527;23;20159;-88
2022/12/23 07:26:13;;;;;;;3.40;1.80;;;;;;;;;;6196632;23;20219;-89
2022/12/23 07:29:18;;;;;;;3.00;2.03;;;;;;;;;;6198285;23;20176;-91
2022/12/23 07:32:23;;;;;;;3.80;2.17;;;;;;;;;;6197872;23;20167;-90
2022/12/23 07:35:30;;;;;;;4.80;2.00;;;;;;;;;;6198665;23;20490;-87
2022/12/23 07:38:37;;;;;;;4.90;2.17;;;;;;;;;;6197724;23;20171;-88
2022/12/23 07:41:44;;;;;;;2.90;1.37;;;;;;;;;;6197473;23;20168;-90
2022/12/23 07:44:51;;;;;;;8.10;3.30;;;;;;;;;;6197700;23;20217;-89
2022/12/23 07:47:57;;;;;;;7.53;3.53;;;;;;;;;;6196409;23;20172;-90
2022/12/23 07:51:03;;;;;;;7.30;4.00;;;;;;;;;;6180935;23;20288;-88
2022/12/23 07:54:09;;;;;;;12.10;7.57;;;;;;;;;;6177574;23;20618;-88
2022/12/23 07:57:15;;;;;;;9.80;5.07;;;;;;;;;;6197509;23;20216;-88
2022/12/23 08:00:21;;;;;;;10.20;4.90;;;;;;;;;;6198219;23;20159;-90
2022/12/23 08:03:26;;;;;;;16.83;7.70;;;;;;;;;;6198733;23;20159;-92
2022/12/23 08:06:35;;;;;;;12.07;7.67;;;;;;;;;;6199548;23;20164;-90
2022/12/23 08:09:40;;;;;;;11.27;5.70;;;;;;;;;;6199576;23;20211;-86
2022/12/23 08:12:48;;;;;;;12.27;5.07;;;;;;;;;;6200936;23;20168;-88
2022/12/23 08:15:57;;;;;;;17.50;8.87;;;;;;;;;;6199395;23;20500;-88
2022/12/23 08:19:03;;;;;;;17.90;8.70;;;;;;;;;;6200123;23;20520;-88
2022/12/23 08:22:08;;;;;;;13.37;6.13;;;;;;;;;;6183086;23;20246;-88
2022/12/23 08:25:13;;;;;;;15.10;7.00;;;;;;;;;;6199909;23;20207;-87
2022/12/23 08:28:20;;;;;;;17.23;7.80;;;;;;;;;;6198314;23;20248;-89
2022/12/23 08:31:26;;;;;;;14.47;7.33;;;;;;;;;;6198852;23;20252;-87
2022/12/23 08:34:57;;;;;;;13.87;7.50;;;;;;;;;;6202402;23;20269;-91
2022/12/23 08:38:03;;;;;;;17.70;8.87;;;;;;;;;;6203363;23;20164;-89
2022/12/23 08:41:09;;;;;;;70.40;28.80;;;;;;;;;;6201044;23;20167;-88
2022/12/23 08:44:16;;;;;;;18.40;9.87;;;;;;;;;;6182748;23;20172;-88
2022/12/23 08:47:22;;;;;;;15.53;6.97;;;;;;;;;;6201493;23;20215;-87
2022/12/23 08:50:29;;;;;;;9.50;4.70;;;;;;;;;;6200255;23;20198;-89
2022/12/23 08:53:36;;;;;;;13.73;6.77;;;;;;;;;;6199212;23;20175;-89
2022/12/23 08:56:42;;;;;;;14.03;7.77;;;;;;;;;;6200473;23;20152;-88
2022/12/23 08:59:50;;;;;;;19.73;7.63;;;;;;;;;;6197798;23;20180;-89
2022/12/23 09:02:55;;;;;;;11.43;5.67;;;;;;;;;;6198499;23;20151;-89
2022/12/23 09:06:04;;;;;;;9.23;3.70;;;;;;;;;;6200121;23;20205;-89
2022/12/23 09:09:10;;;;;;;7.63;4.27;;;;;;;;;;6215872;23;20186;-93
2022/12/23 09:12:15;;;;;;;12.37;5.60;;;;;;;;;;6192577;23;20194;-90
2022/12/23 09:15:22;;;;;;;8.90;5.50;;;;;;;;;;6057231;23;20190;-90
2022/12/23 09:18:27;;;;;;;10.27;5.67;;;;;;;;;;6072540;23;20182;-89
2022/12/23 09:21:32;;;;;;;8.03;5.10;;;;;;;;;;5947082;23;20191;-90
2022/12/23 09:24:38;;;;;;;6.37;4.20;;;;;;;;;;6026400;23;20494;-90
2022/12/23 09:27:43;;;;;;;8.03;4.83;;;;;;;;;;6028492;23;20157;-91
2022/12/23 09:30:49;;;;;;;12.07;6.50;;;;;;;;;;5997788;23;20303;-90
2022/12/23 09:33:55;;;;;;;11.63;5.90;;;;;;;;;;5997202;23;20226;-90
2022/12/23 09:37:00;;;;;;;10.80;5.93;;;;;;;;;;5996362;23;20515;-89
2022/12/23 09:40:05;;;;;;;15.03;7.80;;;;;;;;;;5998534;23;20181;-88
2022/12/23 09:43:32;;;;;;;12.83;6.30;;;;;;;;;;5997217;24;20172;-89
2022/12/23 09:46:44;;;;;;;34.50;14.43;;;;;;;;;;5995279;24;20236;-90
2022/12/23 09:49:53;;;;;;;17.17;8.40;;;;;;;;;;6027186;23;20169;-90
2022/12/23 09:53:01;;;;;;;12.23;6.90;;;;;;;;;;6011051;23;20209;-88
2022/12/23 09:56:09;;;;;;;30.27;11.07;;;;;;;;;;5995551;23;20249;-87
2022/12/23 09:59:20;;;;;;;20.30;11.27;;;;;;;;;;5999953;23;20172;-89
2022/12/23 10:02:34;;;;;;;17.20;9.10;;;;;;;;;;6012222;23;20253;-87
2022/12/23 10:05:45;;;;;;;16.80;8.82;;;;;;;;;;5998622;23;20661;-88
2022/12/23 10:08:52;;;;;;;18.10;9.35;;;;;;;;;;5995001;24;20173;-89
2022/12/23 10:11:57;;;;;;;15.07;7.88;;;;;;;;;;6028087;23;20293;-87
2022/12/23 10:15:04;;;;;;;11.23;7.35;;;;;;;;;;5995883;23;20298;-87
2022/12/23 10:18:26;;;;;;;14.45;8.27;;;;;;;;;;5994824;23;20175;-87
2022/12/23 10:21:33;;;;;;;12.25;6.60;;;;;;;;;;5966181;23;20208;-87
2022/12/23 10:24:40;;;;;;;15.05;7.93;;;;;;;;;;5724802;24;20211;-88
2022/12/23 11:36:01;;;;;;;14.20;8.53;;;;;;;;;;6032803;23;1329786;-86
2022/12/23 11:39:08;;;;;;;19.50;9.40;;;;;;;;;;6030029;23;20174;-88
2022/12/23 11:42:16;;;;;;;19.63;10.68;;;;;;;;;;6038904;23;20194;-88
2022/12/23 11:45:22;;;;;;;24.27;11.88;;;;;;;;;;6032224;23;20250;-87
2022/12/23 11:48:30;;;;;;;20.98;12.82;;;;;;;;;;6035474;23;20218;-89
2022/12/23 11:51:36;;;;;;;24.63;12.32;;;;;;;;;;6034452;23;20199;-87
2022/12/23 11:54:41;;;;;;;17.13;9.38;;;;;;;;;;6034697;23;20179;-90
2022/12/23 11:57:48;;;;;;;17.17;9.23;;;;;;;;;;6052704;23;20333;-88
2022/12/23 12:00:54;;;;;;;21.02;9.57;;;;;;;;;;6035278;23;20171;-88
2022/12/23 12:04:01;;;;;;;17.05;9.40;;;;;;;;;;6035242;23;20242;-89
2022/12/23 12:07:12;;;;;;;21.77;10.10;;;;;;;;;;6035615;23;20178;-88
2022/12/23 12:10:19;;;;;;;19.45;10.38;;;;;;;;;;6036140;23;20172;-89
2022/12/23 12:13:26;;;;;;;24.40;13.77;;;;;;;;;;6035275;23;20206;-88
2022/12/23 12:16:41;;;;;;;23.00;12.30;;;;;;;;;;6034727;23;20224;-91
2022/12/23 12:19:54;;;;;;;16.33;9.07;;;;;;;;;;6035109;23;20664;-86
2022/12/23 12:23:03;;;;;;;20.33;10.27;;;;;;;;;;6033823;23;20155;-88
2022/12/23 12:26:11;;;;;;;20.50;11.35;;;;;;;;;;6035651;23;20284;-88
2022/12/23 12:29:23;;;;;;;24.00;12.32;;;;;;;;;;6035184;23;20176;-89
2022/12/23 12:32:36;;;;;;;24.98;11.27;;;;;;;;;;6037416;23;20199;-89
2022/12/23 12:35:44;;;;;;;19.60;11.18;;;;;;;;;;6036511;23;20180;-88
2022/12/23 12:38:53;;;;;;;30.85;14.50;;;;;;;;;;6038116;23;20167;-90
2022/12/23 12:42:03;;;;;;;40.35;18.55;;;;;;;;;;6037405;23;20355;-88
2022/12/23 12:45:13;;;;;;;40.72;22.00;;;;;;;;;;6053755;23;20168;-87
2022/12/23 12:48:30;;;;;;;36.45;18.10;;;;;;;;;;6036533;23;20163;-89
2022/12/23 12:51:39;;;;;;;27.33;15.13;;;;;;;;;;6035046;23;20168;-86
2022/12/23 12:54:50;;;;;;;38.30;22.00;;;;;;;;;;6034934;23;20187;-89
2022/12/23 12:57:55;;;;;;;40.40;22.33;;;;;;;;;;6036799;23;20209;-90
2022/12/23 13:01:07;;;;;;;38.30;18.63;;;;;;;;;;6035685;23;20219;-90
2022/12/23 13:04:33;;;;;;;34.45;17.45;;;;;;;;;;6035671;23;20182;-89
2022/12/23 13:07:43;;;;;;;33.80;16.30;;;;;;;;;;6037120;23;20296;-88
2022/12/23 13:10:50;;;;;;;28.27;13.68;;;;;;;;;;6035475;23;20167;-89
2022/12/23 13:13:59;;;;;;;40.22;16.15;;;;;;;;;;6034027;23;20175;-92
2022/12/23 13:17:08;;;;;;;45.78;20.30;;;;;;;;;;6033210;23;20167;-90
2022/12/23 13:20:17;;;;;;;37.90;17.70;;;;;;;;;;6035261;23;20159;-91
2022/12/23 13:23:24;;;;;;;34.65;16.27;;;;;;;;;;6033358;23;20171;-88
2022/12/23 13:26:36;;;;;;;39.40;18.08;;;;;;;;;;6035425;23;20159;-88
2022/12/23 13:29:46;;;;;;;49.70;22.30;;;;;;;;;;6052991;23;20224;-89
2022/12/23 13:33:05;;;;;;;40.80;19.48;;;;;;;;;;6035806;23;20275;-89
2022/12/23 13:36:18;;;;;;;30.77;15.93;;;;;;;;;;6035507;23;20240;-91
2022/12/23 13:39:39;;;;;;;32.88;15.75;;;;;;;;;;6034986;23;20183;-89
2022/12/23 13:42:49;;;;;;;33.15;15.82;;;;;;;;;;6052853;23;20179;-89
2022/12/23 13:45:55;;;;;;;32.83;16.27;;;;;;;;;;6051172;23;20224;-89
2022/12/23 13:49:01;;;;;;;38.60;15.43;;;;;;;;;;6034213;23;20182;-92
2022/12/23 13:52:09;;;;;;;50.85;21.75;;;;;;;;;;6036296;23;20194;-92
2022/12/23 13:55:22;;;;;;;38.72;14.45;;;;;;;;;;6034320;23;20236;-89
2022/12/23 13:58:31;;;;;;;31.95;14.07;;;;;;;;;;6035955;23;20172;-91
2022/12/23 14:01:37;;;;;;;34.60;14.77;;;;;;;;;;6035634;23;20238;-92
2022/12/23 14:04:58;;;;;;;28.92;12.55;;;;;;;;;;6035476;23;20175;-89
2022/12/23 14:08:04;;;;;;;29.45;12.13;;;;;;;;;;6036786;23;20224;-89
2022/12/23 14:11:15;;;;;;;36.47;12.48;;;;;;;;;;6033698;23;20171;-90
2022/12/23 14:14:24;;;;;;;44.83;13.77;;;;;;;;;;6035601;23;20212;-91
2022/12/23 14:17:33;;;;;;;33.05;11.93;;;;;;;;;;6036764;23;20175;-91
2022/12/23 14:20:43;;;;;;;45.03;16.60;;;;;;;;;;6035686;23;20608;-91
2022/12/23 14:23:58;;;;;;;21.23;7.90;;;;;;;;;;6035115;23;20179;-89
2022/12/23 14:27:17;;;;;;;16.73;6.75;;;;;;;;;;6035762;23;20211;-90
2022/12/23 14:30:27;;;;;;;26.58;9.55;;;;;;;;;;6035242;23;20230;-89
2022/12/23 14:33:34;;;;;;;23.38;8.27;;;;;;;;;;6034942;23;20346;-90
2022/12/23 14:36:39;;;;;;;21.50;7.50;;;;;;;;;;6035377;23;20198;-89
2022/12/23 14:39:45;;;;;;;13.85;6.63;;;;;;;;;;6034747;23;20166;-92
2022/12/23 14:42:50;;;;;;;15.32;6.30;;;;;;;;;;6032975;23;20369;-88
2022/12/23 14:45:58;;;;;;;18.88;8.40;;;;;;;;;;6037076;23;20204;-90
2022/12/23 14:49:14;;;;;;;24.02;9.27;;;;;;;;;;6035431;23;20818;-89
2022/12/23 14:52:34;;;;;;;19.23;7.95;;;;;;;;;;6037851;23;20650;-87
2022/12/23 14:55:49;;;;;;;14.95;7.18;;;;;;;;;;6034775;23;20277;-89
2022/12/23 14:59:00;;;;;;;14.85;6.32;;;;;;;;;;6034476;23;20175;-90
2022/12/23 15:02:15;;;;;;;12.13;4.75;;;;;;;;;;6035887;23;20168;-91
2022/12/23 15:05:22;;;;;;;8.38;3.33;;;;;;;;;;6035742;23;20152;-88
2022/12/23 15:08:31;;;;;;;7.57;3.38;;;;;;;;;;6052808;23;20173;-88
2022/12/23 15:11:37;;;;;;;8.27;4.55;;;;;;;;;;6035230;23;20194;-86
2022/12/23 15:14:48;;;;;;;8.93;4.03;;;;;;;;;;6051816;23;20176;-90
2022/12/23 15:18:03;;;;;;;5.55;3.17;;;;;;;;;;6034049;23;20223;-89
2022/12/23 15:21:12;;;;;;;1.02;0.88;;;;;;;;;;6038074;23;20239;-92
2022/12/23 15:24:18;;;;;;;4.72;2.00;;;;;;;;;;6036405;23;20279;-91
2022/12/23 15:27:23;;;;;;;1.52;1.38;;;;;;;;;;6036723;23;20171;-91
2022/12/23 15:30:31;;;;;;;7.68;3.42;;;;;;;;;;6035268;23;20347;-91
2022/12/23 15:33:38;;;;;;;0.70;0.70;;;;;;;;;;6035510;23;20191;-92
2022/12/23 15:36:43;;;;;;;3.58;2.00;;;;;;;;;;6035953;23;20199;-92
2022/12/23 15:39:49;;;;;;;1.95;1.77;;;;;;;;;;6035872;23;20247;-90
2022/12/23 15:42:54;;;;;;;1.65;1.50;;;;;;;;;;6033383;23;20274;-86
2022/12/23 15:46:05;;;;;;;2.70;2.05;;;;;;;;;;6036045;23;20507;-89
2022/12/23 15:49:13;;;;;;;5.05;1.70;;;;;;;;;;6035701;23;20504;-89
2022/12/23 15:52:19;;;;;;;3.03;1.98;;;;;;;;;;6034623;23;20603;-88
2022/12/23 15:55:25;;;;;;;3.33;1.80;;;;;;;;;;6034614;23;20186;-91
2022/12/23 15:58:33;;;;;;;1.92;1.23;;;;;;;;;;6035646;23;20264;-89
2022/12/23 16:01:40;;;;;;;1.73;1.48;;;;;;;;;;6035611;23;20300;-90
2022/12/23 16:04:53;;;;;;;0.50;0.50;;;;;;;;;;6036129;23;20251;-89
2022/12/23 16:08:11;;;;;;;0.82;0.80;;;;;;;;;;6037618;23;20167;-88
2022/12/23 16:11:18;;;;;;;0.80;0.80;;;;;;;;;;6035684;23;20551;-90
2022/12/23 16:14:26;;;;;;;1.05;1.00;;;;;;;;;;6033790;23;20179;-88
2022/12/23 16:17:32;;;;;;;2.70;1.63;;;;;;;;;;6037256;23;20171;-90
2022/12/23 16:20:42;;;;;;;0.50;0.50;;;;;;;;;;6041047;23;20503;-90
2022/12/23 16:23:50;;;;;;;0.38;0.38;;;;;;;;;;6037488;23;20263;-91
2022/12/23 16:26:55;;;;;;;0.82;0.80;;;;;;;;;;6036256;23;20159;-91
2022/12/23 16:30:02;;;;;;;0.52;0.52;;;;;;;;;;6035995;23;20151;-88
2022/12/23 16:33:08;;;;;;;1.13;0.70;;;;;;;;;;6038664;23;20202;-91
2022/12/23 16:36:20;;;;;;;0.68;0.68;;;;;;;;;;6038371;23;20202;-91
2022/12/23 16:39:27;;;;;;;0.73;0.73;;;;;;;;;;6036336;23;20244;-90
2022/12/23 16:42:33;;;;;;;0.88;0.88;;;;;;;;;;6036459;23;20288;-91
2022/12/23 16:45:39;;;;;;;0.43;0.43;;;;;;;;;;6037949;23;20159;-90
2022/12/23 16:48:49;;;;;;;0.90;0.65;;;;;;;;;;6039449;23;20256;-94
2022/12/23 16:51:55;;;;;;;0.57;0.57;;;;;;;;;;6038274;23;20175;-90
2022/12/23 16:55:09;;;;;;;0.40;0.40;;;;;;;;;;6042829;23;20262;-91
2022/12/23 16:58:15;;;;;;;0.70;0.70;;;;;;;;;;6039807;23;20163;-92
2022/12/23 17:01:22;;;;;;;1.25;1.15;;;;;;;;;;6038672;23;20183;-91
2022/12/23 17:04:28;;;;;;;0.70;0.70;;;;;;;;;;6039465;23;20570;-92
2022/12/23 17:07:35;;;;;;;2.60;1.15;;;;;;;;;;6037324;23;20167;-93
2022/12/23 17:10:43;;;;;;;0.52;0.52;;;;;;;;;;6036230;23;20168;-92
2022/12/23 17:13:48;;;;;;;1.40;1.13;;;;;;;;;;6036497;23;20190;-91
2022/12/23 17:16:54;;;;;;;1.38;1.27;;;;;;;;;;6036649;23;20200;-91
2022/12/23 17:19:59;;;;;;;0.70;0.52;;;;;;;;;;6036306;23;20171;-91
2022/12/23 17:23:06;;;;;;;0.85;0.85;;;;;;;;;;6035713;23;20195;-91
2022/12/23 17:26:11;;;;;;;0.57;0.57;;;;;;;;;;6039051;23;20172;-91
2022/12/23 17:29:17;;;;;;;0.50;0.50;;;;;;;;;;6034495;23;20168;-91
2022/12/23 17:32:22;;;;;;;1.08;0.98;;;;;;;;;;6035790;23;20155;-91
2022/12/23 17:35:28;;;;;;;0.75;0.75;;;;;;;;;;6037140;23;20176;-91
2022/12/23 17:38:35;;;;;;;0.63;0.60;;;;;;;;;;6036546;23;20216;-91
2022/12/23 17:41:42;;;;;;;1.90;1.30;;;;;;;;;;6037229;23;20171;-91
2022/12/23 17:44:49;;;;;;;10.35;1.45;;;;;;;;;;6033322;23;20619;-90
2022/12/23 17:47:58;;;;;;;0.70;0.70;;;;;;;;;;6036995;23;20171;-90
2022/12/23 17:51:04;;;;;;;1.85;0.70;;;;;;;;;;6035400;23;20171;-91
2022/12/23 17:54:17;;;;;;;2.47;1.50;;;;;;;;;;6035570;23;20207;-91
2022/12/23 17:57:23;;;;;;;0.82;0.82;;;;;;;;;;6035937;23;20171;-92
2022/12/23 18:00:29;;;;;;;0.50;0.50;;;;;;;;;;6037118;23;20175;-90
2022/12/23 18:03:34;;;;;;;0.93;0.85;;;;;;;;;;6037045;23;20174;-90
2022/12/23 18:06:39;;;;;;;1.50;1.27;;;;;;;;;;6034983;23;20678;-92
2022/12/23 18:09:50;;;;;;;0.77;0.60;;;;;;;;;;6034615;23;20172;-91
2022/12/23 18:12:57;;;;;;;3.50;1.67;;;;;;;;;;6033568;23;20167;-92
2022/12/23 18:16:02;;;;;;;0.50;0.50;;;;;;;;;;6033129;23;20176;-91
2022/12/23 18:19:11;;;;;;;0.38;0.38;;;;;;;;;;6035274;23;20234;-91
2022/12/23 18:22:20;;;;;;;1.65;1.05;;;;;;;;;;6036651;23;20526;-92
2022/12/23 18:25:28;;;;;;;0.57;0.57;;;;;;;;;;6038542;23;20219;-92
2022/12/23 18:28:36;;;;;;;1.08;0.90;;;;;;;;;;6037832;23;20184;-91
2022/12/23 18:31:45;;;;;;;0.80;0.80;;;;;;;;;;6033785;23;20247;-90
2022/12/23 18:34:51;;;;;;;0.70;0.70;;;;;;;;;;6037211;23;20183;-91
2022/12/23 18:37:56;;;;;;;0.95;0.90;;;;;;;;;;6038048;23;20191;-91
2022/12/23 18:41:03;;;;;;;0.80;0.80;;;;;;;;;;6037542;23;20302;-92
2022/12/23 18:44:11;;;;;;;2.60;0.65;;;;;;;;;;6034860;23;20175;-91
2022/12/23 18:47:16;;;;;;;0.75;0.75;;;;;;;;;;6035427;23;20167;-92
2022/12/23 18:50:21;;;;;;;0.77;0.77;;;;;;;;;;6033732;23;20155;-92
2022/12/23 18:53:30;;;;;;;0.90;0.90;;;;;;;;;;6035474;23;20764;-91
2022/12/23 18:56:35;;;;;;;0.85;0.80;;;;;;;;;;6038214;23;20170;-92
2022/12/23 18:59:40;;;;;;;1.77;1.15;;;;;;;;;;6038575;23;20687;-92
2022/12/23 19:02:46;;;;;;;1.33;0.77;;;;;;;;;;6038936;23;20171;-91
2022/12/23 19:05:52;;;;;;;3.90;1.42;;;;;;;;;;6037761;23;20163;-93
2022/12/23 19:08:58;;;;;;;0.88;0.88;;;;;;;;;;6037941;23;20186;-92
2022/12/23 19:12:05;;;;;;;1.13;1.05;;;;;;;;;;6038619;23;20171;-92
2022/12/23 19:15:11;;;;;;;0.40;0.40;;;;;;;;;;6038458;23;20203;-93
2022/12/23 19:18:17;;;;;;;4.18;1.15;;;;;;;;;;6036627;23;20309;-92
2022/12/23 19:21:22;;;;;;;1.40;0.73;;;;;;;;;;6035414;23;20232;-89
2022/12/23 19:24:28;;;;;;;0.65;0.65;;;;;;;;;;6034405;23;20166;-91
2022/12/23 19:27:34;;;;;;;0.82;0.82;;;;;;;;;;6035603;23;20622;-90
2022/12/23 19:30:41;;;;;;;1.35;1.05;;;;;;;;;;6035392;23;20175;-91
2022/12/23 19:33:46;;;;;;;1.27;1.20;;;;;;;;;;6036053;23;20240;-91
2022/12/23 19:36:52;;;;;;;5.15;2.28;;;;;;;;;;6035605;23;20198;-90
2022/12/23 19:39:57;;;;;;;3.20;0.75;;;;;;;;;;6034893;23;20166;-89
2022/12/23 19:43:04;;;;;;;3.88;2.00;;;;;;;;;;6035610;23;20187;-91
2022/12/23 19:46:10;;;;;;;4.38;1.10;;;;;;;;;;6053208;23;20179;-92
2022/12/23 19:49:19;;;;;;;0.85;0.85;;;;;;;;;;6036459;23;20190;-89
2022/12/23 19:52:25;;;;;;;0.95;0.60;;;;;;;;;;6035320;23;20502;-91
2022/12/23 19:55:31;;;;;;;0.55;0.55;;;;;;;;;;6033300;23;20203;-89
2022/12/23 19:58:38;;;;;;;0.63;0.63;;;;;;;;;;6036501;23;20170;-89
2022/12/23 20:01:44;;;;;;;2.03;0.80;;;;;;;;;;6036743;23;20220;-91
2022/12/23 20:04:50;;;;;;;0.90;0.90;;;;;;;;;;6035004;23;20477;-91
2022/12/23 20:08:26;;;;;;;1.45;1.02;;;;;;;;;;6034313;23;20162;-89
2022/12/23 20:11:33;;;;;;;1.80;1.63;;;;;;;;;;6036514;23;20204;-89
2022/12/23 20:14:40;;;;;;;0.82;0.70;;;;;;;;;;6036865;23;20199;-91
2022/12/23 20:17:44;;;;;;;0.70;0.70;;;;;;;;;;6035860;23;20236;-92
2022/12/23 20:20:50;;;;;;;0.88;0.88;;;;;;;;;;6033837;23;20175;-89
2022/12/23 20:23:55;;;;;;;3.97;1.58;;;;;;;;;;6035387;23;20163;-91